createdAt,value
2018-02-25T00:00:03.251Z,755.72
2018-02-25T00:00:07.397Z,755.69
2018-02-25T00:00:11.640Z,755.73
2018-02-25T00:00:15.780Z,755.72
2018-02-25T00:00:19.919Z,755.71
2018-02-25T00:00:23.931Z,755.67
2018-02-25T00:00:28.179Z,755.69
2018-02-25T00:00:32.096Z,755.66
2018-02-25T00:00:36.348Z,755.68
2018-02-25T00:00:40.484Z,755.66
2018-02-25T00:00:44.616Z,755.63
2018-02-25T00:00:48.650Z,755.63
2018-02-25T00:00:52.894Z,755.67
2018-02-25T00:00:57.110Z,755.65
2018-02-25T00:01:01.328Z,755.67
2018-02-25T00:01:05.563Z,755.63
2018-02-25T00:01:09.713Z,755.63
2018-02-25T00:01:13.859Z,755.62
2018-02-25T00:01:18.121Z,755.65
2018-02-25T00:01:22.476Z,755.62
2018-02-25T00:01:26.709Z,755.62
2018-02-25T00:01:30.936Z,755.62
2018-02-25T00:01:34.848Z,755.6
2018-02-25T00:01:38.970Z,755.6
2018-02-25T00:01:43.207Z,755.63
2018-02-25T00:01:47.357Z,755.58
2018-02-25T00:01:51.494Z,755.63
2018-02-25T00:01:55.741Z,755.58
2018-02-25T00:01:59.768Z,755.58
2018-02-25T00:02:03.811Z,755.58
2018-02-25T00:02:08.148Z,755.57
2018-02-25T00:02:12.413Z,755.58
2018-02-25T00:02:16.770Z,755.59
2018-02-25T00:02:21.118Z,755.52
2018-02-25T00:02:25.232Z,755.52
2018-02-25T00:02:29.579Z,755.53
2018-02-25T00:02:33.878Z,755.52
2018-02-25T00:02:38.030Z,755.52
2018-02-25T00:02:42.170Z,755.54
2018-02-25T00:02:46.083Z,755.5
2018-02-25T00:02:50.315Z,755.49
2018-02-25T00:02:54.547Z,755.54
2018-02-25T00:02:58.785Z,755.51
2018-02-25T00:03:03.291Z,755.51
2018-02-25T00:03:07.532Z,755.5
2018-02-25T00:03:11.673Z,755.48
2018-02-25T00:03:15.812Z,755.53
2018-02-25T00:03:19.989Z,755.46
2018-02-25T00:03:24.227Z,755.47
2018-02-25T00:03:28.460Z,755.48
2018-02-25T00:03:32.706Z,755.49
2018-02-25T00:03:36.843Z,755.46
2018-02-25T00:03:41.083Z,755.48
2018-02-25T00:03:44.784Z,755.49
2018-02-25T00:03:48.924Z,755.45
2018-02-25T00:03:52.930Z,755.42
2018-02-25T00:03:57.160Z,755.45
2018-02-25T00:04:01.502Z,755.42
2018-02-25T00:04:05.740Z,755.42
2018-02-25T00:04:09.997Z,755.43
2018-02-25T00:04:14.233Z,755.42
2018-02-25T00:04:18.576Z,755.44
2018-02-25T00:04:22.917Z,755.44
2018-02-25T00:04:27.171Z,755.42
2018-02-25T00:04:31.200Z,755.42
2018-02-25T00:04:35.442Z,755.42
2018-02-25T00:04:39.684Z,755.42
2018-02-25T00:04:43.722Z,755.39
2018-02-25T00:04:47.738Z,755.39
2018-02-25T00:04:51.977Z,755.43
2018-02-25T00:04:56.218Z,755.41
2018-02-25T00:05:00.561Z,755.38
2018-02-25T00:05:04.978Z,755.37
2018-02-25T00:05:09.108Z,755.36
2018-02-25T00:05:13.133Z,755.35
2018-02-25T00:05:17.368Z,755.34
2018-02-25T00:05:21.513Z,755.34
2018-02-25T00:05:25.763Z,755.34
2018-02-25T00:05:29.995Z,755.33
2018-02-25T00:05:34.230Z,755.38
2018-02-25T00:05:38.579Z,755.35
2018-02-25T00:05:42.714Z,755.35
2018-02-25T00:05:46.846Z,755.32
2018-02-25T00:05:50.981Z,755.32
2018-02-25T00:05:55.334Z,755.3
2018-02-25T00:05:59.575Z,755.31
2018-02-25T00:06:03.388Z,755.34
2018-02-25T00:06:07.652Z,755.29
2018-02-25T00:06:12.009Z,755.28
2018-02-25T00:06:16.367Z,755.31
2018-02-25T00:06:20.524Z,755.31
2018-02-25T00:06:24.875Z,755.28
2018-02-25T00:06:28.993Z,755.26
2018-02-25T00:06:33.330Z,755.26
2018-02-25T00:06:37.576Z,755.25
2018-02-25T00:06:41.928Z,755.25
2018-02-25T00:06:46.159Z,755.27
2018-02-25T00:06:50.404Z,755.25
2018-02-25T00:06:54.766Z,755.25
2018-02-25T00:06:58.904Z,755.23
2018-02-25T00:07:03.144Z,755.24
2018-02-25T00:07:07.272Z,755.21
2018-02-25T00:07:11.524Z,755.23
2018-02-25T00:07:15.659Z,755.22
2018-02-25T00:07:20.017Z,755.21
2018-02-25T00:07:24.265Z,755.21
2018-02-25T00:07:28.394Z,755.22
2018-02-25T00:07:32.640Z,755.19
2018-02-25T00:07:37.000Z,755.2
2018-02-25T00:07:41.250Z,755.19
2018-02-25T00:07:45.502Z,755.18
2018-02-25T00:07:49.626Z,755.19
2018-02-25T00:07:53.964Z,755.19
2018-02-25T00:07:58.327Z,755.19
2018-02-25T00:08:02.700Z,755.18
2018-02-25T00:08:06.930Z,755.13
2018-02-25T00:08:11.170Z,755.18
2018-02-25T00:08:15.310Z,755.17
2018-02-25T00:08:19.662Z,755.11
2018-02-25T00:08:23.906Z,755.15
2018-02-25T00:08:28.054Z,755.16
2018-02-25T00:08:32.265Z,755.15
2018-02-25T00:08:36.857Z,755.15
2018-02-25T00:08:41.208Z,755.11
2018-02-25T00:08:45.542Z,755.09
2018-02-25T00:08:49.797Z,755.12
2018-02-25T00:08:53.936Z,755.14
2018-02-25T00:08:58.079Z,755.08
2018-02-25T00:09:02.212Z,755.05
2018-02-25T00:09:06.459Z,755.04
2018-02-25T00:09:10.387Z,755.03
2018-02-25T00:09:14.633Z,755.06
2018-02-25T00:09:18.769Z,755.06
2018-02-25T00:09:23.012Z,755.1
2018-02-25T00:09:26.930Z,755.04
2018-02-25T00:09:31.272Z,755.08
2018-02-25T00:09:35.625Z,755.07
2018-02-25T00:09:39.963Z,755.07
2018-02-25T00:09:44.195Z,755.05
2018-02-25T00:09:48.333Z,755.06
2018-02-25T00:09:52.679Z,755.07
2018-02-25T00:09:56.923Z,755.04
2018-02-25T00:10:01.253Z,755.07
2018-02-25T00:10:05.488Z,755.06
2018-02-25T00:10:09.721Z,755.08
2018-02-25T00:10:13.959Z,755.03
2018-02-25T00:10:18.093Z,755.05
2018-02-25T00:10:22.132Z,755.1
2018-02-25T00:10:26.469Z,755.1
2018-02-25T00:10:30.723Z,755.1
2018-02-25T00:10:34.906Z,755.09
2018-02-25T00:10:39.243Z,755.1
2018-02-25T00:10:43.500Z,755.04
2018-02-25T00:10:47.638Z,755.05
2018-02-25T00:10:51.865Z,755.08
2018-02-25T00:10:56.106Z,755.05
2018-02-25T00:11:00.250Z,755.06
2018-02-25T00:11:04.851Z,755.09
2018-02-25T00:11:09.022Z,755.11
2018-02-25T00:11:13.268Z,755.07
2018-02-25T00:11:17.500Z,755.11
2018-02-25T00:11:21.731Z,755.08
2018-02-25T00:11:25.885Z,755.05
2018-02-25T00:11:29.912Z,755.07
2018-02-25T00:11:33.927Z,755.05
2018-02-25T00:11:38.155Z,755.06
2018-02-25T00:11:42.284Z,755.07
2018-02-25T00:11:46.636Z,755.09
2018-02-25T00:11:50.878Z,755.08
2018-02-25T00:11:55.003Z,755.12
2018-02-25T00:11:59.346Z,755.08
2018-02-25T00:12:03.586Z,755.02
2018-02-25T00:12:07.615Z,755.08
2018-02-25T00:12:11.874Z,755.07
2018-02-25T00:12:16.224Z,755.06
2018-02-25T00:12:19.937Z,755.05
2018-02-25T00:12:24.067Z,755.1
2018-02-25T00:12:28.314Z,755.11
2018-02-25T00:12:32.551Z,755.07
2018-02-25T00:12:36.768Z,755.11
2018-02-25T00:12:40.899Z,755.11
2018-02-25T00:12:44.944Z,755.12
2018-02-25T00:12:48.974Z,755.12
2018-02-25T00:12:53.234Z,755.1
2018-02-25T00:12:57.380Z,755.11
2018-02-25T00:13:01.506Z,755.13
2018-02-25T00:13:05.948Z,755.13
2018-02-25T00:13:10.303Z,755.11
2018-02-25T00:13:14.212Z,755.13
2018-02-25T00:13:18.578Z,755.14
2018-02-25T00:13:22.606Z,755.11
2018-02-25T00:13:26.967Z,755.12
2018-02-25T00:13:31.003Z,755.1
2018-02-25T00:13:35.240Z,755.09
2018-02-25T00:13:39.402Z,755.15
2018-02-25T00:13:43.319Z,755.13
2018-02-25T00:13:47.460Z,755.13
2018-02-25T00:13:51.716Z,755.12
2018-02-25T00:13:55.862Z,755.07
2018-02-25T00:13:59.980Z,755.1
2018-02-25T00:14:04.212Z,755.08
2018-02-25T00:14:08.446Z,755.08
2018-02-25T00:14:12.585Z,755.11
2018-02-25T00:14:16.717Z,755.16
2018-02-25T00:14:20.846Z,755.11
2018-02-25T00:14:24.976Z,755.09
2018-02-25T00:14:29.114Z,755.11
2018-02-25T00:14:33.239Z,755.11
2018-02-25T00:14:37.262Z,755.1
2018-02-25T00:14:41.494Z,755.11
2018-02-25T00:14:45.742Z,755.1
2018-02-25T00:14:49.879Z,755.09
2018-02-25T00:14:54.005Z,755.11
2018-02-25T00:14:58.238Z,755.08
2018-02-25T00:15:02.621Z,755.13
2018-02-25T00:15:06.745Z,755.11
2018-02-25T00:15:10.980Z,755.11
2018-02-25T00:15:15.177Z,755.09
2018-02-25T00:15:19.307Z,755.15
2018-02-25T00:15:23.446Z,755.1
2018-02-25T00:15:27.581Z,755.11
2018-02-25T00:15:31.820Z,755.12
2018-02-25T00:15:36.177Z,755.1
2018-02-25T00:15:40.311Z,755.12
2018-02-25T00:15:44.657Z,755.1
2018-02-25T00:15:48.785Z,755.13
2018-02-25T00:15:53.025Z,755.14
2018-02-25T00:15:57.162Z,755.11
2018-02-25T00:16:01.415Z,755.14
2018-02-25T00:16:05.794Z,755.15
2018-02-25T00:16:09.928Z,755.15
2018-02-25T00:16:14.073Z,755.13
2018-02-25T00:16:18.094Z,755.13
2018-02-25T00:16:22.233Z,755.13
2018-02-25T00:16:26.568Z,755.12
2018-02-25T00:16:30.804Z,755.11
2018-02-25T00:16:34.935Z,755.14
2018-02-25T00:16:39.171Z,755.15
2018-02-25T00:16:43.505Z,755.1
2018-02-25T00:16:47.528Z,755.13
2018-02-25T00:16:51.765Z,755.12
2018-02-25T00:16:56.107Z,755.16
2018-02-25T00:17:00.323Z,755.14
2018-02-25T00:17:04.767Z,755.11
2018-02-25T00:17:09.142Z,755.12
2018-02-25T00:17:13.201Z,755.11
2018-02-25T00:17:17.588Z,755.12
2018-02-25T00:17:21.840Z,755.11
2018-02-25T00:17:25.971Z,755.09
2018-02-25T00:17:30.108Z,755.08
2018-02-25T00:17:34.121Z,755.11
2018-02-25T00:17:38.253Z,755.08
2018-02-25T00:17:42.389Z,755.1
2018-02-25T00:17:46.644Z,755.08
2018-02-25T00:17:50.866Z,755.07
2018-02-25T00:17:55.099Z,755.1
2018-02-25T00:17:59.333Z,755.04
2018-02-25T00:18:03.583Z,755.08
2018-02-25T00:18:07.813Z,755.09
2018-02-25T00:18:12.040Z,755.11
2018-02-25T00:18:16.401Z,755.08
2018-02-25T00:18:20.541Z,755.09
2018-02-25T00:18:24.672Z,755.09
2018-02-25T00:18:29.020Z,755.06
2018-02-25T00:18:33.271Z,755.06
2018-02-25T00:18:37.680Z,755.04
2018-02-25T00:18:42.102Z,755.02
2018-02-25T00:18:46.334Z,755.05
2018-02-25T00:18:50.484Z,755.05
2018-02-25T00:18:54.612Z,755.07
2018-02-25T00:18:58.961Z,755
2018-02-25T00:19:03.214Z,755.03
2018-02-25T00:19:07.472Z,755.03
2018-02-25T00:19:11.732Z,755.02
2018-02-25T00:19:15.859Z,755
2018-02-25T00:19:20.090Z,755.02
2018-02-25T00:19:24.327Z,755.02
2018-02-25T00:19:28.237Z,755.01
2018-02-25T00:19:32.498Z,754.99
2018-02-25T00:19:36.746Z,754.99
2018-02-25T00:19:40.976Z,754.97
2018-02-25T00:19:44.991Z,754.97
2018-02-25T00:19:49.222Z,754.99
2018-02-25T00:19:53.469Z,755
2018-02-25T00:19:57.616Z,755.01
2018-02-25T00:20:01.864Z,754.96
2018-02-25T00:20:06.114Z,754.97
2018-02-25T00:20:10.341Z,754.99
2018-02-25T00:20:14.473Z,754.98
2018-02-25T00:20:18.730Z,755.01
2018-02-25T00:20:22.872Z,754.99
2018-02-25T00:20:27.229Z,755
2018-02-25T00:20:31.487Z,754.98
2018-02-25T00:20:35.523Z,754.99
2018-02-25T00:20:39.769Z,754.96
2018-02-25T00:20:44.002Z,754.97
2018-02-25T00:20:48.239Z,754.96
2018-02-25T00:20:52.257Z,754.96
2018-02-25T00:20:56.397Z,754.93
2018-02-25T00:21:00.526Z,754.94
2018-02-25T00:21:04.792Z,754.92
2018-02-25T00:21:08.935Z,754.92
2018-02-25T00:21:12.956Z,754.96
2018-02-25T00:21:17.190Z,754.94
2018-02-25T00:21:21.447Z,754.94
2018-02-25T00:21:25.795Z,754.92
2018-02-25T00:21:30.045Z,754.95
2018-02-25T00:21:34.392Z,754.9
2018-02-25T00:21:38.636Z,754.95
2018-02-25T00:21:42.878Z,754.91
2018-02-25T00:21:47.104Z,754.93
2018-02-25T00:21:51.334Z,754.89
2018-02-25T00:21:55.472Z,754.89
2018-02-25T00:21:59.619Z,754.88
2018-02-25T00:22:04.093Z,754.91
2018-02-25T00:22:08.214Z,754.86
2018-02-25T00:22:12.552Z,754.85
2018-02-25T00:22:16.900Z,754.91
2018-02-25T00:22:21.038Z,754.89
2018-02-25T00:22:25.285Z,754.87
2018-02-25T00:22:29.638Z,754.89
2018-02-25T00:22:33.892Z,754.89
2018-02-25T00:22:38.128Z,754.86
2018-02-25T00:22:42.262Z,754.87
2018-02-25T00:22:46.393Z,754.85
2018-02-25T00:22:50.542Z,754.86
2018-02-25T00:22:54.897Z,754.85
2018-02-25T00:22:59.240Z,754.86
2018-02-25T00:23:03.479Z,754.84
2018-02-25T00:23:07.609Z,754.83
2018-02-25T00:23:11.854Z,754.81
2018-02-25T00:23:15.981Z,754.82
2018-02-25T00:23:20.227Z,754.89
2018-02-25T00:23:24.576Z,754.84
2018-02-25T00:23:28.822Z,754.84
2018-02-25T00:23:32.849Z,754.83
2018-02-25T00:23:36.978Z,754.79
2018-02-25T00:23:40.993Z,754.8
2018-02-25T00:23:45.001Z,754.77
2018-02-25T00:23:49.028Z,754.81
2018-02-25T00:23:53.144Z,754.77
2018-02-25T00:23:57.286Z,754.8
2018-02-25T00:24:01.306Z,754.77
2018-02-25T00:24:05.428Z,754.79
2018-02-25T00:24:09.548Z,754.73
2018-02-25T00:24:13.676Z,754.77
2018-02-25T00:24:17.599Z,754.77
2018-02-25T00:24:21.741Z,754.78
2018-02-25T00:24:25.767Z,754.81
2018-02-25T00:24:29.903Z,754.75
2018-02-25T00:24:34.035Z,754.75
2018-02-25T00:24:37.947Z,754.75
2018-02-25T00:24:41.983Z,754.76
2018-02-25T00:24:46.100Z,754.74
2018-02-25T00:24:50.235Z,754.74
2018-02-25T00:24:54.773Z,754.77
2018-02-25T00:24:59.139Z,754.78
2018-02-25T00:25:03.523Z,754.77
2018-02-25T00:25:07.660Z,754.81
2018-02-25T00:25:11.894Z,754.81
2018-02-25T00:25:15.898Z,754.8
2018-02-25T00:25:20.138Z,754.82
2018-02-25T00:25:24.485Z,754.82
2018-02-25T00:25:28.728Z,754.79
2018-02-25T00:25:32.740Z,754.79
2018-02-25T00:25:37.108Z,754.82
2018-02-25T00:25:41.237Z,754.81
2018-02-25T00:25:45.372Z,754.78
2018-02-25T00:25:49.493Z,754.76
2018-02-25T00:25:53.735Z,754.78
2018-02-25T00:25:57.959Z,754.76
2018-02-25T00:26:02.205Z,754.78
2018-02-25T00:26:06.242Z,754.78
2018-02-25T00:26:10.488Z,754.77
2018-02-25T00:26:14.751Z,754.8
2018-02-25T00:26:18.884Z,754.78
2018-02-25T00:26:22.905Z,754.81
2018-02-25T00:26:27.140Z,754.81
2018-02-25T00:26:31.268Z,754.8
2018-02-25T00:26:35.292Z,754.83
2018-02-25T00:26:39.518Z,754.82
2018-02-25T00:26:43.898Z,754.85
2018-02-25T00:26:48.027Z,754.87
2018-02-25T00:26:52.145Z,754.85
2018-02-25T00:26:56.272Z,754.83
2018-02-25T00:27:00.625Z,754.83
2018-02-25T00:27:04.650Z,754.86
2018-02-25T00:27:08.785Z,754.87
2018-02-25T00:27:13.118Z,754.83
2018-02-25T00:27:17.261Z,754.84
2018-02-25T00:27:21.506Z,754.86
2018-02-25T00:27:25.750Z,754.88
2018-02-25T00:27:29.878Z,754.89
2018-02-25T00:27:34.208Z,754.86
2018-02-25T00:27:38.360Z,754.85
2018-02-25T00:27:42.491Z,754.85
2018-02-25T00:27:46.523Z,754.84
2018-02-25T00:27:50.860Z,754.86
2018-02-25T00:27:54.993Z,754.86
2018-02-25T00:27:59.238Z,754.87
2018-02-25T00:28:03.649Z,754.86
2018-02-25T00:28:07.783Z,754.84
2018-02-25T00:28:12.029Z,754.83
2018-02-25T00:28:16.253Z,754.81
2018-02-25T00:28:20.176Z,754.83
2018-02-25T00:28:24.404Z,754.83
2018-02-25T00:28:28.758Z,754.81
2018-02-25T00:28:33.008Z,754.8
2018-02-25T00:28:37.041Z,754.81
2018-02-25T00:28:41.274Z,754.84
2018-02-25T00:28:45.209Z,754.83
2018-02-25T00:28:49.466Z,754.82
2018-02-25T00:28:53.479Z,754.82
2018-02-25T00:28:57.838Z,754.82
2018-02-25T00:29:02.144Z,754.82
2018-02-25T00:29:06.381Z,754.81
2018-02-25T00:29:10.550Z,754.82
2018-02-25T00:29:14.683Z,754.82
2018-02-25T00:29:18.816Z,754.82
2018-02-25T00:29:22.936Z,754.85
2018-02-25T00:29:26.852Z,754.82
2018-02-25T00:29:31.095Z,754.83
2018-02-25T00:29:35.339Z,754.79
2018-02-25T00:29:39.587Z,754.81
2018-02-25T00:29:43.844Z,754.8
2018-02-25T00:29:48.097Z,754.82
2018-02-25T00:29:52.436Z,754.78
2018-02-25T00:29:56.587Z,754.81
2018-02-25T00:30:00.726Z,754.8
2018-02-25T00:30:04.857Z,754.82
2018-02-25T00:30:08.989Z,754.82
2018-02-25T00:30:13.019Z,754.82
2018-02-25T00:30:17.367Z,754.79
2018-02-25T00:30:21.619Z,754.86
2018-02-25T00:30:25.961Z,754.82
2018-02-25T00:30:30.299Z,754.82
2018-02-25T00:30:34.310Z,754.83
2018-02-25T00:30:38.426Z,754.82
2018-02-25T00:30:42.786Z,754.83
2018-02-25T00:30:46.798Z,754.88
2018-02-25T00:30:50.823Z,754.84
2018-02-25T00:30:55.067Z,754.83
2018-02-25T00:30:59.309Z,754.84
2018-02-25T00:31:03.441Z,754.82
2018-02-25T00:31:07.567Z,754.82
2018-02-25T00:31:11.816Z,754.86
2018-02-25T00:31:16.057Z,754.84
2018-02-25T00:31:20.179Z,754.85
2018-02-25T00:31:24.410Z,754.82
2018-02-25T00:31:28.648Z,754.87
2018-02-25T00:31:32.764Z,754.83
2018-02-25T00:31:36.988Z,754.85
2018-02-25T00:31:41.227Z,754.82
2018-02-25T00:31:45.576Z,754.86
2018-02-25T00:31:49.594Z,754.88
2018-02-25T00:31:53.614Z,754.8
2018-02-25T00:31:57.918Z,754.79
2018-02-25T00:32:02.211Z,754.85
2018-02-25T00:32:06.229Z,754.82
2018-02-25T00:32:10.353Z,754.83
2018-02-25T00:32:14.376Z,754.83
2018-02-25T00:32:18.510Z,754.83
2018-02-25T00:32:22.754Z,754.81
2018-02-25T00:32:26.758Z,754.83
2018-02-25T00:32:30.903Z,754.82
2018-02-25T00:32:35.187Z,754.81
2018-02-25T00:32:39.413Z,754.78
2018-02-25T00:32:43.638Z,754.84
2018-02-25T00:32:47.775Z,754.82
2018-02-25T00:32:51.792Z,754.76
2018-02-25T00:32:56.037Z,754.79
2018-02-25T00:33:00.055Z,754.86
2018-02-25T00:33:04.023Z,754.83
2018-02-25T00:33:08.052Z,754.81
2018-02-25T00:33:12.189Z,754.82
2018-02-25T00:33:16.314Z,754.78
2018-02-25T00:33:20.409Z,754.79
2018-02-25T00:33:24.647Z,754.83
2018-02-25T00:33:28.999Z,754.82
2018-02-25T00:33:33.345Z,754.81
2018-02-25T00:33:37.369Z,754.79
2018-02-25T00:33:41.490Z,754.76
2018-02-25T00:33:45.608Z,754.81
2018-02-25T00:33:49.752Z,754.83
2018-02-25T00:33:53.770Z,754.81
2018-02-25T00:33:57.794Z,754.84
2018-02-25T00:34:02.142Z,754.77
2018-02-25T00:34:06.287Z,754.81
2018-02-25T00:34:10.520Z,754.8
2018-02-25T00:34:14.654Z,754.79
2018-02-25T00:34:18.793Z,754.78
2018-02-25T00:34:22.914Z,754.78
2018-02-25T00:34:26.929Z,754.79
2018-02-25T00:34:31.060Z,754.75
2018-02-25T00:34:35.187Z,754.76
2018-02-25T00:34:39.088Z,754.8
2018-02-25T00:34:43.226Z,754.8
2018-02-25T00:34:47.352Z,754.82
2018-02-25T00:34:51.595Z,754.83
2018-02-25T00:34:55.837Z,754.81
2018-02-25T00:34:59.955Z,754.81
2018-02-25T00:35:03.868Z,754.8
2018-02-25T00:35:07.910Z,754.79
2018-02-25T00:35:12.253Z,754.76
2018-02-25T00:35:16.505Z,754.8
2018-02-25T00:35:20.983Z,754.77
2018-02-25T00:35:24.956Z,754.77
2018-02-25T00:35:29.196Z,754.78
2018-02-25T00:35:33.445Z,754.81
2018-02-25T00:35:37.689Z,754.81
2018-02-25T00:35:41.917Z,754.8
2018-02-25T00:35:45.927Z,754.82
2018-02-25T00:35:50.048Z,754.78
2018-02-25T00:35:54.280Z,754.79
2018-02-25T00:35:58.517Z,754.81
2018-02-25T00:36:02.766Z,754.77
2018-02-25T00:36:06.904Z,754.77
2018-02-25T00:36:11.042Z,754.77
2018-02-25T00:36:15.399Z,754.8
2018-02-25T00:36:19.706Z,754.78
2018-02-25T00:36:23.847Z,754.78
2018-02-25T00:36:28.090Z,754.78
2018-02-25T00:36:32.222Z,754.77
2018-02-25T00:36:36.446Z,754.78
2018-02-25T00:36:40.600Z,754.74
2018-02-25T00:36:44.842Z,754.76
2018-02-25T00:36:49.204Z,754.76
2018-02-25T00:36:53.604Z,754.75
2018-02-25T00:36:57.631Z,754.73
2018-02-25T00:37:01.972Z,754.76
2018-02-25T00:37:06.301Z,754.77
2018-02-25T00:37:10.705Z,754.74
2018-02-25T00:37:14.734Z,754.74
2018-02-25T00:37:18.873Z,754.74
2018-02-25T00:37:23.006Z,754.74
2018-02-25T00:37:27.025Z,754.72
2018-02-25T00:37:31.167Z,754.74
2018-02-25T00:37:35.278Z,754.75
2018-02-25T00:37:39.401Z,754.73
2018-02-25T00:37:43.473Z,754.76
2018-02-25T00:37:47.596Z,754.76
2018-02-25T00:37:51.640Z,754.77
2018-02-25T00:37:55.665Z,754.75
2018-02-25T00:37:59.910Z,754.7
2018-02-25T00:38:03.919Z,754.68
2018-02-25T00:38:08.253Z,754.72
2018-02-25T00:38:12.492Z,754.68
2018-02-25T00:38:16.731Z,754.64
2018-02-25T00:38:20.642Z,754.68
2018-02-25T00:38:24.769Z,754.66
2018-02-25T00:38:28.898Z,754.69
2018-02-25T00:38:33.145Z,754.72
2018-02-25T00:38:37.272Z,754.77
2018-02-25T00:38:41.400Z,754.71
2018-02-25T00:38:45.329Z,754.73
2018-02-25T00:38:49.347Z,754.73
2018-02-25T00:38:53.485Z,754.7
2018-02-25T00:38:57.631Z,754.72
2018-02-25T00:39:01.921Z,754.71
2018-02-25T00:39:06.175Z,754.71
2018-02-25T00:39:10.201Z,754.7
2018-02-25T00:39:14.422Z,754.71
2018-02-25T00:39:18.539Z,754.67
2018-02-25T00:39:22.675Z,754.67
2018-02-25T00:39:26.581Z,754.66
2018-02-25T00:39:30.936Z,754.66
2018-02-25T00:39:35.052Z,754.68
2018-02-25T00:39:39.073Z,754.68
2018-02-25T00:39:43.092Z,754.63
2018-02-25T00:39:47.209Z,754.66
2018-02-25T00:39:51.340Z,754.65
2018-02-25T00:39:55.490Z,754.66
2018-02-25T00:39:59.521Z,754.66
2018-02-25T00:40:03.654Z,754.64
2018-02-25T00:40:08.018Z,754.65
2018-02-25T00:40:12.256Z,754.65
2018-02-25T00:40:16.488Z,754.62
2018-02-25T00:40:20.416Z,754.65
2018-02-25T00:40:24.230Z,754.63
2018-02-25T00:40:28.469Z,754.62
2018-02-25T00:40:32.589Z,754.61
2018-02-25T00:40:36.610Z,754.61
2018-02-25T00:40:40.434Z,754.6
2018-02-25T00:40:44.676Z,754.64
2018-02-25T00:40:48.815Z,754.64
2018-02-25T00:40:52.854Z,754.56
2018-02-25T00:40:56.976Z,754.56
2018-02-25T00:41:00.883Z,754.58
2018-02-25T00:41:05.274Z,754.57
2018-02-25T00:41:09.509Z,754.56
2018-02-25T00:41:13.629Z,754.54
2018-02-25T00:41:17.859Z,754.55
2018-02-25T00:41:22.106Z,754.52
2018-02-25T00:41:25.928Z,754.54
2018-02-25T00:41:30.050Z,754.54
2018-02-25T00:41:34.393Z,754.55
2018-02-25T00:41:38.305Z,754.54
2018-02-25T00:41:42.650Z,754.58
2018-02-25T00:41:47.010Z,754.61
2018-02-25T00:41:51.362Z,754.62
2018-02-25T00:41:55.292Z,754.62
2018-02-25T00:41:59.415Z,754.58
2018-02-25T00:42:03.745Z,754.58
2018-02-25T00:42:07.870Z,754.6
2018-02-25T00:42:12.094Z,754.6
2018-02-25T00:42:16.327Z,754.56
2018-02-25T00:42:20.691Z,754.58
2018-02-25T00:42:24.830Z,754.58
2018-02-25T00:42:28.947Z,754.56
2018-02-25T00:42:33.274Z,754.57
2018-02-25T00:42:37.517Z,754.61
2018-02-25T00:42:41.648Z,754.58
2018-02-25T00:42:45.895Z,754.57
2018-02-25T00:42:49.907Z,754.6
2018-02-25T00:42:54.248Z,754.58
2018-02-25T00:42:58.380Z,754.58
2018-02-25T00:43:02.736Z,754.58
2018-02-25T00:43:06.982Z,754.58
2018-02-25T00:43:11.244Z,754.57
2018-02-25T00:43:15.315Z,754.57
2018-02-25T00:43:19.446Z,754.59
2018-02-25T00:43:23.687Z,754.57
2018-02-25T00:43:27.806Z,754.58
2018-02-25T00:43:32.214Z,754.56
2018-02-25T00:43:36.255Z,754.62
2018-02-25T00:43:40.590Z,754.53
2018-02-25T00:43:44.840Z,754.57
2018-02-25T00:43:48.971Z,754.61
2018-02-25T00:43:53.008Z,754.57
2018-02-25T00:43:57.244Z,754.59
2018-02-25T00:44:01.383Z,754.58
2018-02-25T00:44:05.623Z,754.53
2018-02-25T00:44:09.865Z,754.61
2018-02-25T00:44:13.901Z,754.57
2018-02-25T00:44:18.021Z,754.58
2018-02-25T00:44:21.944Z,754.59
2018-02-25T00:44:25.964Z,754.58
2018-02-25T00:44:30.087Z,754.58
2018-02-25T00:44:34.440Z,754.56
2018-02-25T00:44:38.481Z,754.6
2018-02-25T00:44:42.599Z,754.56
2018-02-25T00:44:46.742Z,754.58
2018-02-25T00:44:50.775Z,754.57
2018-02-25T00:44:54.914Z,754.6
2018-02-25T00:44:59.161Z,754.59
2018-02-25T00:45:03.385Z,754.55
2018-02-25T00:45:07.663Z,754.56
2018-02-25T00:45:11.797Z,754.5
2018-02-25T00:45:15.831Z,754.53
2018-02-25T00:45:20.082Z,754.51
2018-02-25T00:45:23.993Z,754.49
2018-02-25T00:45:27.822Z,754.5
2018-02-25T00:45:31.955Z,754.5
2018-02-25T00:45:35.971Z,754.48
2018-02-25T00:45:40.199Z,754.49
2018-02-25T00:45:44.538Z,754.49
2018-02-25T00:45:48.666Z,754.51
2018-02-25T00:45:52.888Z,754.53
2018-02-25T00:45:57.120Z,754.49
2018-02-25T00:46:01.245Z,754.5
2018-02-25T00:46:05.175Z,754.51
2018-02-25T00:46:09.526Z,754.51
2018-02-25T00:46:13.554Z,754.51
2018-02-25T00:46:17.459Z,754.51
2018-02-25T00:46:21.579Z,754.53
2018-02-25T00:46:25.696Z,754.52
2018-02-25T00:46:29.941Z,754.5
2018-02-25T00:46:34.080Z,754.53
2018-02-25T00:46:38.331Z,754.53
2018-02-25T00:46:42.470Z,754.51
2018-02-25T00:46:46.611Z,754.51
2018-02-25T00:46:50.859Z,754.54
2018-02-25T00:46:54.764Z,754.51
2018-02-25T00:46:58.573Z,754.56
2018-02-25T00:47:02.908Z,754.5
2018-02-25T00:47:07.049Z,754.52
2018-02-25T00:47:11.309Z,754.51
2018-02-25T00:47:15.808Z,754.53
2018-02-25T00:47:19.939Z,754.49
2018-02-25T00:47:24.164Z,754.49
2018-02-25T00:47:28.295Z,754.48
2018-02-25T00:47:32.355Z,754.53
2018-02-25T00:47:36.492Z,754.53
2018-02-25T00:47:40.740Z,754.51
2018-02-25T00:47:44.673Z,754.53
2018-02-25T00:47:48.695Z,754.52
2018-02-25T00:47:52.933Z,754.52
2018-02-25T00:47:57.293Z,754.5
2018-02-25T00:48:01.320Z,754.5
2018-02-25T00:48:05.497Z,754.54
2018-02-25T00:48:09.529Z,754.53
2018-02-25T00:48:13.770Z,754.59
2018-02-25T00:48:18.018Z,754.55
2018-02-25T00:48:22.154Z,754.54
2018-02-25T00:48:26.165Z,754.54
2018-02-25T00:48:30.517Z,754.59
2018-02-25T00:48:34.661Z,754.56
2018-02-25T00:48:38.901Z,754.53
2018-02-25T00:48:43.032Z,754.53
2018-02-25T00:48:46.939Z,754.54
2018-02-25T00:48:51.083Z,754.52
2018-02-25T00:48:55.150Z,754.49
2018-02-25T00:48:59.210Z,754.53
2018-02-25T00:49:03.341Z,754.51
2018-02-25T00:49:07.466Z,754.55
2018-02-25T00:49:11.821Z,754.57
2018-02-25T00:49:16.063Z,754.57
2018-02-25T00:49:20.194Z,754.56
2018-02-25T00:49:24.427Z,754.55
2018-02-25T00:49:28.337Z,754.56
2018-02-25T00:49:32.254Z,754.53
2018-02-25T00:49:36.393Z,754.56
2018-02-25T00:49:40.425Z,754.54
2018-02-25T00:49:44.564Z,754.55
2018-02-25T00:49:48.897Z,754.53
2018-02-25T00:49:53.010Z,754.55
2018-02-25T00:49:57.141Z,754.55
2018-02-25T00:50:01.052Z,754.56
2018-02-25T00:50:05.536Z,754.56
2018-02-25T00:50:09.551Z,754.54
2018-02-25T00:50:13.889Z,754.57
2018-02-25T00:50:17.794Z,754.55
2018-02-25T00:50:22.036Z,754.55
2018-02-25T00:50:26.063Z,754.53
2018-02-25T00:50:30.307Z,754.54
2018-02-25T00:50:34.315Z,754.56
2018-02-25T00:50:38.428Z,754.55
2018-02-25T00:50:42.538Z,754.55
2018-02-25T00:50:46.790Z,754.51
2018-02-25T00:50:50.711Z,754.5
2018-02-25T00:50:55.102Z,754.53
2018-02-25T00:50:59.346Z,754.52
2018-02-25T00:51:03.573Z,754.53
2018-02-25T00:51:07.805Z,754.49
2018-02-25T00:51:12.038Z,754.51
2018-02-25T00:51:16.306Z,754.52
2018-02-25T00:51:20.545Z,754.49
2018-02-25T00:51:24.782Z,754.43
2018-02-25T00:51:28.952Z,754.52
2018-02-25T00:51:33.069Z,754.51
2018-02-25T00:51:37.075Z,754.51
2018-02-25T00:51:41.421Z,754.5
2018-02-25T00:51:45.774Z,754.47
2018-02-25T00:51:50.044Z,754.48
2018-02-25T00:51:54.066Z,754.5
2018-02-25T00:51:58.308Z,754.48
2018-02-25T00:52:02.227Z,754.49
2018-02-25T00:52:06.474Z,754.45
2018-02-25T00:52:10.512Z,754.5
2018-02-25T00:52:14.659Z,754.48
2018-02-25T00:52:19.024Z,754.51